Time;durP1;ratioP1;P1;durP2;ratioP2;P2;SDS_P1;SDS_P2;PMS_P1;PMS_P2;Temp;Humidity;BMP_temperature;BMP_pressure;BME280_temperature;BME280_humidity;BME280_pressure;Samples;Min_cycle;Max_cycle;Signal;HPM_P1;HPM_P2
2022/03/21 00:03:34;;;;;;;;;;;3.80;99.90;;;2.67;49.87;96908.81;10461137;28;1830;-77
2022/03/21 00:08:39;;;;;;;;;;;3.70;99.90;;;2.55;50.02;96899.81;10470871;28;1725;-77
2022/03/21 00:13:42;;;;;;;;;;;3.60;99.90;;;2.42;50.84;96895.25;10459117;28;1977;-76
2022/03/21 00:18:46;;;;;;;;;;;3.50;99.90;;;2.45;51.02;96905.44;10447640;28;1829;-74
2022/03/21 00:23:49;;;;;;;;;;;3.50;99.90;;;2.39;51.24;96906.22;10455538;28;1878;-77
2022/03/21 00:28:53;;;;;;;;;;;3.40;99.90;;;2.27;51.94;96903.28;10445444;28;1771;-76
2022/03/21 00:33:57;;;;;;;;;;;3.40;99.90;;;2.13;52.61;96905.03;10451651;28;1967;-76
2022/03/21 00:39:01;;;;;;;;;;;3.40;99.90;;;2.14;51.97;96905.84;10450536;28;1837;-75
2022/03/21 00:44:04;;;;;;;;;;;3.30;99.90;;;2.13;52.04;96910.31;10445716;28;1742;-78
2022/03/21 00:49:11;;;;;;;;;;;3.20;99.90;;;1.94;53.29;96908.34;10449186;28;1817;-76
2022/03/21 00:54:15;;;;;;;;;;;3.10;99.90;;;2.00;53.40;96915.53;10444539;28;1922;-76
2022/03/21 00:59:19;;;;;;;;;;;3.10;99.90;;;1.99;53.11;96921.84;10442281;28;1936;-76
2022/03/21 01:04:22;;;;;;;;;;;3.10;99.90;;;1.95;53.94;96915.28;10444133;28;1801;-78
2022/03/21 01:09:26;;;;;;;;;;;3.10;99.90;;;1.91;54.10;96908.75;10445174;28;1863;-76
2022/03/21 01:14:29;;;;;;;;;;;3.00;99.90;;;1.85;54.66;96902.38;10440284;28;1898;-77
2022/03/21 01:19:32;;;;;;;;;;;3.00;99.90;;;1.70;55.61;96906.09;10447711;28;1863;-76
2022/03/21 01:24:37;;;;;;;;;;;2.90;99.90;;;1.76;56.47;96907.97;10440470;28;1854;-77
2022/03/21 01:29:41;;;;;;;;;;;2.90;99.90;;;1.80;55.31;96907.41;10442736;28;1793;-77
2022/03/21 01:34:46;;;;;;;;;;;2.90;99.90;;;1.65;56.26;96904.00;10436638;28;2293;-77
2022/03/21 01:39:50;;;;;;;;;;;2.80;99.90;;;1.42;57.27;96898.91;10443277;28;2117;-76
2022/03/21 01:44:53;;;;;;;;;;;2.60;99.90;;;1.38;57.35;96899.44;10448103;28;1955;-76
2022/03/21 01:49:57;;;;;;;;;;;2.50;99.90;;;1.34;57.06;96906.97;10445268;28;2031;-77
2022/03/21 02:00:21;;;;;;;;;;;2.40;99.90;;;1.19;58.31;96903.53;10444816;28;1951;-77
2022/03/21 02:05:24;;;;;;;;;;;2.30;99.90;;;1.11;58.83;96919.53;10443757;28;1877;-77
2022/03/21 02:10:27;;;;;;;;;;;2.20;99.90;;;1.11;58.88;96919.53;10448178;28;1931;-76
2022/03/21 02:15:31;;;;;;;;;;;2.20;99.90;;;1.16;58.79;96912.69;10471901;28;2127;-76
2022/03/21 02:20:34;;;;;;;;;;;2.40;99.90;;;0.98;59.29;96917.56;10465231;28;2354;-76
2022/03/21 02:25:38;;;;;;;;;;;2.20;99.90;;;1.02;59.39;96914.34;10451518;28;2004;-79
2022/03/21 02:30:41;;;;;;;;;;;2.00;99.90;;;0.97;59.21;96914.09;10448365;28;2050;-76
2022/03/21 02:35:44;;;;;;;;;;;2.10;99.90;;;0.98;59.55;96913.06;10439414;28;1985;-78
2022/03/21 02:40:47;;;;;;;;;;;2.10;99.90;;;0.95;59.48;96918.72;10444352;28;1880;-76
2022/03/21 02:45:50;;;;;;;;;;;2.00;99.90;;;1.02;59.32;96914.34;10451312;28;1880;-77
2022/03/21 02:50:55;;;;;;;;;;;2.10;99.90;;;0.98;59.46;96921.03;10447558;28;1986;-76
2022/03/21 02:55:57;;;;;;;;;;;2.10;99.90;;;0.79;60.32;96924.25;10446018;28;1981;-76
2022/03/21 03:01:01;;;;;;;;;;;2.00;99.90;;;0.74;60.94;96923.97;10442792;28;1944;-76
2022/03/21 03:06:04;;;;;;;;;;;1.80;99.90;;;0.58;61.80;96922.34;10442279;28;2071;-75
2022/03/21 03:11:07;;;;;;;;;;;1.80;99.90;;;0.72;61.36;96921.50;10453273;28;1943;-76
2022/03/21 03:16:10;;;;;;;;;;;1.70;99.90;;;0.53;63.71;96922.88;10450498;28;1997;-77
2022/03/21 03:21:14;;;;;;;;;;;1.70;99.90;;;0.44;63.47;96926.59;10447559;28;1929;-76
2022/03/21 03:26:17;;;;;;;;;;;1.60;99.90;;;0.42;63.19;96928.63;10467141;28;2041;-77
2022/03/21 03:31:21;;;;;;;;;;;1.60;99.90;;;0.51;62.81;96922.25;10458182;28;1908;-76
2022/03/21 03:36:24;;;;;;;;;;;1.50;99.90;;;0.34;65.20;96925.25;10444273;28;2143;-77
2022/03/21 03:41:28;;;;;;;;;;;1.60;99.90;;;0.26;64.04;96934.09;10445327;28;1974;-76
2022/03/21 03:46:31;;;;;;;;;;;1.40;99.90;;;0.30;64.40;96943.28;10443158;28;2000;-77
2022/03/21 03:51:34;;;;;;;;;;;1.40;99.90;;;0.41;63.42;96942.03;10448249;28;2110;-77
2022/03/21 03:56:37;;;;;;;;;;;1.50;99.90;;;0.42;63.43;96941.03;10442650;28;1914;-77
2022/03/21 04:01:40;;;;;;;;;;;1.50;99.90;;;0.15;65.39;96937.16;10449724;28;1943;-77
2022/03/21 04:06:43;;;;;;;;;;;1.40;99.90;;;-0.03;65.88;96940.94;10446273;28;2076;-76
2022/03/21 04:11:46;;;;;;;;;;;1.10;99.90;;;0.24;64.46;96941.34;10443846;28;1934;-76
2022/03/21 04:16:54;;;;;;;;;;;1.10;99.90;;;0.28;64.75;96947.94;10444206;28;2003;-78
2022/03/21 04:21:58;;;;;;;;;;;1.20;99.90;;;0.13;64.09;96950.56;10448952;28;1882;-78
2022/03/21 04:27:02;;;;;;;;;;;1.20;99.90;;;-0.01;65.03;96948.69;10448094;28;1925;-76
2022/03/21 04:32:05;;;;;;;;;;;1.10;99.90;;;-0.24;66.52;96951.38;10452017;28;1923;-79
2022/03/21 04:37:09;;;;;;;;;;;1.00;99.90;;;-0.13;66.56;96960.69;10450325;28;1983;-76
2022/03/21 04:42:13;;;;;;;;;;;0.90;99.90;;;-0.12;65.14;96959.72;10442820;28;1903;-77
2022/03/21 04:47:15;;;;;;;;;;;0.90;99.90;;;-0.21;64.86;96964.22;10476172;28;1832;-76
2022/03/21 04:52:18;;;;;;;;;;;1.00;99.90;;;-0.31;66.78;96974.22;10468230;28;1909;-76
2022/03/21 04:57:22;;;;;;;;;;;0.90;99.90;;;-0.13;64.40;96976.53;10451141;28;1991;-75
2022/03/21 05:02:25;;;;;;;;;;;0.90;99.90;;;-0.22;63.87;96988.19;10448211;28;1896;-79
2022/03/21 05:07:29;;;;;;;;;;;0.90;99.90;;;-0.15;63.43;96982.00;10451334;28;1945;-77
2022/03/21 05:12:32;;;;;;;;;;;0.80;99.90;;;-0.14;63.06;96991.56;10443743;28;1967;-78
2022/03/21 05:17:35;;;;;;;;;;;0.90;99.90;;;-0.17;63.97;96991.94;10447566;28;2030;-74
2022/03/21 05:22:38;;;;;;;;;;;0.90;99.90;;;-0.16;64.03;96993.59;10447109;28;1940;-78
2022/03/21 05:38:24;;;;;;;;;;;0.90;99.90;;;0.12;64.77;97000.97;10451822;28;1896;-77
2022/03/21 05:43:27;;;;;;;;;;;1.00;99.90;;;0.35;65.55;97001.75;10459292;28;1947;-78
2022/03/21 05:53:52;;;;;;;;;;;1.30;99.90;;;0.73;65.50;97001.72;10448324;28;1906;-76
2022/03/21 05:58:55;;;;;;;;;;;1.60;99.90;;;1.01;64.56;97002.72;10450695;28;1878;-76
2022/03/21 06:03:58;;;;;;;;;;;1.70;99.90;;;1.33;63.79;97005.97;10474715;28;2055;-78
2022/03/21 06:09:01;;;;;;;;;;;2.00;99.90;;;1.70;62.66;97004.97;10496547;28;1560;-76
2022/03/21 06:14:04;;;;;;;;;;;2.30;99.90;;;1.89;61.94;97016.81;10453166;28;1906;-77
2022/03/21 06:19:07;;;;;;;;;;;2.60;99.90;;;2.07;60.63;97021.69;10455052;28;1834;-76
2022/03/21 06:24:12;;;;;;;;;;;2.90;99.90;;;2.44;59.58;97023.25;10455499;28;1829;-77
2022/03/21 06:29:16;;;;;;;;;;;3.00;99.90;;;2.53;58.42;97030.03;10457506;28;1844;-77
2022/03/21 06:34:19;;;;;;;;;;;;;;;2.65;58.44;97027.69;10459438;28;2032;-76
2022/03/21 06:39:23;;;;;;;;;;;3.40;99.90;;;2.86;57.07;97029.47;10468447;28;1914;-77
2022/03/21 06:44:27;;;;;;;;;;;3.50;99.90;;;2.82;56.94;97038.84;10481931;28;1830;-77
2022/03/21 06:49:30;;;;;;;;;;;3.60;99.90;;;3.24;55.89;97036.06;10474961;28;1978;-76
2022/03/21 06:54:33;;;;;;;;;;;3.80;99.90;;;3.71;54.97;97037.06;10478934;28;1921;-76
2022/03/21 06:59:37;;;;;;;;;;;4.00;99.90;;;3.66;54.56;97047.47;10476757;28;1707;-74
2022/03/21 07:04:41;;;;;;;;;;;4.30;99.90;;;3.71;54.63;97038.91;10467244;28;1599;-76
2022/03/21 07:09:44;;;;;;;;;;;4.40;99.90;;;4.19;52.79;97042.28;10461318;28;1825;-77
2022/03/21 07:14:48;;;;;;;;;;;4.60;99.90;;;4.21;52.74;97044.78;10454664;28;1979;-75
2022/03/21 07:19:51;;;;;;;;;;;4.90;99.90;;;4.57;51.69;97049.72;10451524;28;1843;-77
2022/03/21 07:24:54;;;;;;;;;;;5.00;99.90;;;4.37;51.38;97046.22;10462277;28;1762;-77
2022/03/21 07:29:58;;;;;;;;;;;5.20;99.90;;;5.04;50.82;97056.66;10453010;28;1862;-76
2022/03/21 07:35:01;;;;;;;;;;;5.30;99.90;;;5.11;49.74;97057.47;10458948;28;1969;-76
2022/03/21 07:40:04;;;;;;;;;;;5.70;99.90;;;5.60;48.90;97072.16;10459045;28;2033;-75
2022/03/21 07:50:28;;;;;;;;;;;6.50;99.90;;;6.30;47.17;97068.75;10459468;28;1935;-79
2022/03/21 07:55:31;;;;;;;;;;;;;;;6.33;46.03;97074.50;10454248;28;1886;-73
2022/03/21 08:00:35;;;;;;;;;;;;;;;6.08;46.36;97073.59;10453007;28;1883;-75
2022/03/21 08:05:38;;;;;;;;;;;6.20;99.90;;;5.96;46.40;97071.59;10443801;28;1857;-76
2022/03/21 08:10:40;;;;;;;;;;;6.50;99.90;;;6.29;46.22;97075.94;10443792;28;1830;-77
2022/03/21 08:15:44;;;;;;;;;;;6.70;99.90;;;6.05;45.77;97084.72;10470655;28;1911;-75
2022/03/21 08:20:47;;;;;;;;;;;6.80;99.90;;;6.21;45.01;97085.03;10470132;28;1840;-76
2022/03/21 08:25:49;;;;;;;;;;;6.80;99.90;;;5.99;45.83;97089.06;10481399;28;1805;-76
2022/03/21 08:30:52;;;;;;;;;;;6.90;99.90;;;6.58;45.22;97084.41;10482642;28;1741;-76
2022/03/21 08:35:55;;;;;;;;;;;7.10;99.90;;;6.77;44.68;97088.78;10476349;28;1890;-76
2022/03/21 08:41:03;;;;;;;;;;;7.10;99.90;;;7.02;44.63;97092.28;10484327;28;1769;-77
2022/03/21 08:46:06;;;;;;;;;;;7.30;99.90;;;6.91;43.41;97093.00;10482856;28;1781;-77
2022/03/21 08:51:10;;;;;;;;;;;7.60;99.90;;;7.39;42.10;97095.03;10473430;28;1553;-75
2022/03/21 08:56:13;;;;;;;;;;;7.80;99.90;;;7.30;41.92;97091.81;10481302;28;1890;-77
2022/03/21 09:01:16;;;;;;;;;;;7.90;99.90;;;7.54;41.32;97090.16;10482199;28;1892;-77
2022/03/21 09:06:20;;;;;;;;;;;8.00;99.90;;;7.84;40.84;97092.91;10475959;28;1929;-75
2022/03/21 09:11:23;;;;;;;;;;;8.20;99.90;;;7.85;40.70;97089.19;10487483;28;2007;-75
2022/03/21 09:16:27;;;;;;;;;;;8.40;99.90;;;7.97;40.44;97083.91;10484890;28;1903;-76
2022/03/21 09:21:30;;;;;;;;;;;8.60;99.90;;;8.12;39.67;97087.00;10480368;28;2163;-77
2022/03/21 09:26:33;;;;;;;;;;;8.80;99.90;;;8.04;40.29;97095.34;10453022;28;2064;-75
2022/03/21 09:31:38;;;;;;;;;;;8.70;99.90;;;7.99;39.82;97087.16;10451936;28;1889;-77
2022/03/21 09:36:42;;;;;;;;;;;8.80;99.90;;;7.91;40.54;97084.78;10450890;28;1934;-76
2022/03/21 09:41:47;;;;;;;;;;;8.70;99.90;;;8.44;39.03;97083.31;10446304;28;1932;-76
2022/03/21 09:46:50;;;;;;;;;;;8.90;99.90;;;8.17;39.16;97072.13;10454588;28;1811;-75
2022/03/21 09:51:53;;;;;;;;;;;9.00;99.90;;;8.30;39.40;97077.28;10459914;28;1677;-76
2022/03/21 09:56:56;;;;;;;;;;;9.00;99.90;;;8.74;37.87;97077.94;10465286;28;2000;-76
2022/03/21 10:01:59;;;;;;;;;;;9.20;99.90;;;8.55;38.09;97080.69;10454220;28;1999;-75
2022/03/21 10:07:03;;;;;;;;;;;9.30;99.90;;;8.77;37.84;97075.59;10438729;28;1905;-74
2022/03/21 10:12:05;;;;;;;;;;;9.40;99.90;;;8.94;37.27;97073.06;10446540;28;1782;-76
2022/03/21 10:17:09;;;;;;;;;;;9.60;99.90;;;8.92;37.54;97067.13;10445634;28;1906;-75
2022/03/21 10:22:13;;;;;;;;;;;9.60;99.90;;;8.91;36.51;97065.50;10440868;28;1873;-73
2022/03/21 10:27:16;;;;;;;;;;;9.70;99.90;;;9.12;37.43;97059.56;10441866;28;2213;-74
2022/03/21 10:32:19;;;;;;;;;;;9.80;99.90;;;9.39;36.10;97054.53;10451390;28;1850;-74
2022/03/21 10:37:22;;;;;;;;;;;10.10;99.90;;;9.96;34.99;97054.66;10443727;28;1963;-73
2022/03/21 10:42:26;;;;;;;;;;;10.30;99.90;;;9.35;35.89;97055.22;10468561;28;1866;-73
2022/03/21 10:47:29;;;;;;;;;;;;;;;9.70;35.04;97049.81;10455445;28;1852;-75
2022/03/21 10:52:33;;;;;;;;;;;;;;;9.61;35.47;97041.34;10448937;28;1861;-74
2022/03/21 10:57:36;;;;;;;;;;;;;;;9.85;34.80;97041.25;10447329;28;1934;-76
2022/03/21 11:02:39;;;;;;;;;;;10.40;99.90;;;10.17;34.22;97038.94;10443158;28;1829;-74
2022/03/21 11:07:42;;;;;;;;;;;10.60;99.90;;;10.42;33.53;97039.44;10447711;28;2225;-73
2022/03/21 11:12:46;;;;;;;;;;;11.00;99.90;;;10.02;33.22;97031.41;10452074;28;1670;-76
2022/03/21 11:17:49;;;;;;;;;;;11.00;99.90;;;9.97;34.38;97031.28;10443118;28;2063;-76
2022/03/21 11:22:55;;;;;;;;;;;10.90;99.90;;;10.18;34.06;97024.44;10465562;28;1805;-77
2022/03/21 11:27:58;;;;;;;;;;;10.90;99.90;;;10.08;33.65;97026.94;10467490;28;1805;-76
2022/03/21 11:33:02;;;;;;;;;;;11.00;99.90;;;10.40;34.34;97011.19;10447882;28;1762;-76
2022/03/21 11:38:05;;;;;;;;;;;11.10;99.90;;;10.39;33.31;97002.31;10451104;28;1988;-76
2022/03/21 11:43:08;;;;;;;;;;;11.20;99.90;;;10.50;32.96;97006.81;10440311;28;1957;-74
2022/03/21 11:48:11;;;;;;;;;;;11.30;99.90;;;10.49;32.69;97002.47;10449709;28;1787;-76
2022/03/21 11:53:14;;;;;;;;;;;11.40;99.90;;;10.61;32.50;96997.00;10453451;28;1892;-76
2022/03/21 11:58:18;;;;;;;;;;;11.30;99.90;;;10.80;32.19;96990.34;10439531;28;1986;-76
2022/03/21 12:03:21;;;;;;;;;;;11.50;99.90;;;10.76;32.22;96991.91;10443890;28;2094;-76
2022/03/21 12:08:24;;;;;;;;;;;11.60;99.90;;;10.89;31.42;96992.63;10444609;28;1900;-75
2022/03/21 12:13:27;;;;;;;;;;;11.60;99.90;;;10.92;32.13;96979.50;10441658;28;1824;-76
2022/03/21 12:18:36;;;;;;;;;;;11.70;99.90;;;10.92;32.45;96982.19;10590953;27;1814;-76
2022/03/21 12:23:39;;;;;;;;;;;11.70;99.90;;;10.97;31.91;96974.19;10552417;28;1802;-75
2022/03/21 12:34:02;;;;;;;;;;;11.80;99.90;;;10.95;32.65;96964.75;10523159;28;1882;-76
2022/03/21 12:39:05;;;;;;;;;;;11.80;99.90;;;10.93;33.36;96961.47;10521713;28;1855;-74
2022/03/21 12:44:08;;;;;;;;;;;11.90;99.90;;;10.89;32.26;96960.34;10525447;28;1973;-74
2022/03/21 12:49:11;;;;;;;;;;;11.80;99.90;;;11.11;32.33;96961.19;10523488;28;1787;-75
2022/03/21 12:54:14;;;;;;;;;;;11.80;99.90;;;11.13;31.92;96945.59;10517380;28;1996;-76
2022/03/21 12:59:18;;;;;;;;;;;11.90;99.90;;;11.20;31.13;96940.88;10519999;28;1839;-77
2022/03/21 13:15:02;;;;;;;;;;;12.10;99.90;;;11.36;30.42;96947.28;10519924;28;1975;-75
2022/03/21 13:20:05;;;;;;;;;;;12.10;99.90;;;11.34;30.10;96944.03;10515981;28;1825;-75
2022/03/21 13:25:08;;;;;;;;;;;12.10;99.90;;;11.44;30.56;96935.25;10510588;28;1828;-73
2022/03/21 13:30:11;;;;;;;;;;;12.40;99.90;;;11.66;30.84;96922.59;10489049;28;1884;-77
2022/03/21 13:35:14;;;;;;;;;;;12.40;99.90;;;11.50;29.92;96918.09;10496547;28;1973;-75
2022/03/21 13:40:17;;;;;;;;;;;12.40;99.90;;;11.36;29.76;96923.84;10497742;28;1741;-74
2022/03/21 13:45:19;;;;;;;;;;;12.30;99.90;;;11.35;29.01;96916.03;10492137;28;1849;-75
2022/03/21 13:50:33;;;;;;;;;;;12.20;99.90;;;11.45;28.39;96912.63;10493020;28;1851;-75
2022/03/21 13:55:36;;;;;;;;;;;12.30;99.90;;;11.62;29.43;96910.69;10500808;28;2055;-76
2022/03/21 14:00:39;;;;;;;;;;;12.30;99.90;;;11.52;29.56;96900.63;10509369;28;1722;-73
2022/03/21 14:05:42;;;;;;;;;;;12.40;99.90;;;11.63;28.26;96896.16;10541538;28;1810;-75
2022/03/21 14:10:45;;;;;;;;;;;12.40;99.90;;;11.70;29.11;96890.56;10541812;28;1629;-75
2022/03/21 14:15:48;;;;;;;;;;;12.40;99.90;;;11.73;28.81;96890.91;10505649;28;1983;-76
2022/03/21 14:20:51;;;;;;;;;;;12.50;99.90;;;11.72;28.68;96883.06;10498172;28;1853;-74
2022/03/21 14:31:16;;;;;;;;;;;12.50;99.90;;;11.86;29.27;96878.94;10497723;28;1993;-75
2022/03/21 14:36:19;;;;;;;;;;;12.60;99.90;;;11.87;29.14;96870.59;10492845;28;2125;-76
2022/03/21 14:41:22;;;;;;;;;;;12.60;99.90;;;11.74;29.52;96867.47;10489504;28;1891;-75
2022/03/21 14:46:26;;;;;;;;;;;12.60;99.90;;;11.93;30.40;96862.56;10491758;28;1848;-74
2022/03/21 14:51:29;;;;;;;;;;;12.60;99.90;;;11.98;30.49;96865.31;10506446;28;1780;-73
2022/03/21 14:56:32;;;;;;;;;;;12.70;99.90;;;11.84;30.68;96857.66;10503521;28;1979;-74
2022/03/21 15:01:35;;;;;;;;;;;12.80;99.90;;;11.97;30.90;96855.59;10490664;28;2192;-75
2022/03/21 15:06:38;;;;;;;;;;;12.70;99.90;;;11.96;31.95;96848.56;10486378;28;1869;-74
2022/03/21 15:11:41;;;;;;;;;;;12.80;99.90;;;11.98;31.97;96851.84;10490028;28;1942;-75
2022/03/21 15:16:45;;;;;;;;;;;12.80;99.90;;;11.89;33.08;96852.28;10492988;28;1919;-76
2022/03/21 15:21:48;;;;;;;;;;;12.70;99.90;;;11.77;33.46;96851.63;10492301;28;1990;-76
2022/03/21 15:26:51;;;;;;;;;;;12.70;99.90;;;11.79;34.34;96848.66;10512466;28;1580;-75
2022/03/21 15:31:54;;;;;;;;;;;12.60;99.90;;;11.74;34.94;96849.41;10503480;28;1758;-75
2022/03/21 15:42:18;;;;;;;;;;;12.60;99.90;;;11.77;35.70;96856.16;10481738;28;1870;-74
2022/03/21 15:47:21;;;;;;;;;;;12.60;99.90;;;11.72;35.50;96851.56;10493673;28;1878;-75
2022/03/21 15:52:25;;;;;;;;;;;12.60;99.90;;;11.72;35.48;96850.75;10485590;28;1962;-74
2022/03/21 15:57:28;;;;;;;;;;;12.50;99.90;;;11.68;35.77;96852.31;10496203;28;1886;-74
2022/03/21 16:02:30;;;;;;;;;;;12.50;99.90;;;11.64;36.16;96855.53;10483168;28;1944;-73
2022/03/21 16:07:34;;;;;;;;;;;12.50;99.90;;;11.56;35.83;96847.06;10482567;28;1900;-73
2022/03/21 16:12:38;;;;;;;;;;;12.60;99.90;;;11.49;36.44;96843.78;10488490;28;1834;-73
2022/03/21 16:17:42;;;;;;;;;;;12.40;99.90;;;11.46;36.54;96841.59;10487211;28;1977;-75
2022/03/21 16:22:44;;;;;;;;;;;12.20;99.90;;;11.42;37.08;96840.47;10485611;28;1840;-75
2022/03/21 16:27:48;;;;;;;;;;;12.20;99.90;;;11.40;36.66;96842.59;10489133;28;1887;-75
2022/03/21 16:32:51;;;;;;;;;;;12.20;99.90;;;11.20;37.46;96849.38;10502698;28;2157;-73
2022/03/21 16:37:54;;;;;;;;;;;12.10;99.90;;;11.16;37.79;96839.38;10501006;28;1918;-74
2022/03/21 16:42:57;;;;;;;;;;;12.00;99.90;;;11.11;37.96;96848.19;10501576;28;1545;-73
2022/03/21 16:48:00;;;;;;;;;;;12.00;99.90;;;11.01;37.87;96840.81;10491327;28;1518;-76
2022/03/21 16:53:03;;;;;;;;;;;12.00;99.90;;;10.93;37.76;96840.41;10489313;28;1927;-75
2022/03/21 16:58:07;;;;;;;;;;;11.90;99.90;;;10.86;38.61;96848.66;10489827;28;1913;-73
2022/03/21 17:03:10;;;;;;;;;;;11.70;99.90;;;10.74;38.54;96845.28;10489072;28;1895;-73
2022/03/21 17:08:16;;;;;;;;;;;11.60;99.90;;;10.68;39.02;96852.44;10499975;28;1606;-76
2022/03/21 17:13:18;;;;;;;;;;;11.60;99.90;;;10.47;39.39;96851.34;10500488;28;1755;-74
2022/03/21 17:23:42;;;;;;;;;;;11.30;99.90;;;10.17;40.53;96854.34;10492580;28;1846;-75
2022/03/21 17:28:45;;;;;;;;;;;11.20;99.90;;;9.99;41.65;96859.97;10495434;28;2002;-75
2022/03/21 17:33:51;;;;;;;;;;;11.00;99.90;;;9.85;42.44;96858.66;10493312;28;1845;-75
2022/03/21 17:38:55;;;;;;;;;;;10.80;99.90;;;9.70;43.18;96862.69;10491705;28;1965;-75
2022/03/21 17:43:59;;;;;;;;;;;10.80;99.90;;;9.56;43.48;96868.59;10491214;28;1841;-74
2022/03/21 17:49:03;;;;;;;;;;;10.60;99.90;;;9.40;43.74;96876.34;10487985;28;1784;-73
2022/03/21 17:54:06;;;;;;;;;;;10.50;99.90;;;9.37;43.67;96870.66;10504982;28;1784;-73
2022/03/21 17:59:09;;;;;;;;;;;10.40;99.90;;;9.19;44.04;96877.81;10484086;22;2442;-73
2022/03/21 18:04:15;;;;;;;;;;;10.20;99.90;;;9.21;43.92;96878.41;10403587;28;1851;-70
2022/03/21 18:09:19;;;;;;;;;;;10.50;99.90;;;9.00;44.72;96875.53;10384252;28;1893;-72
2022/03/21 18:14:25;;;;;;;;;;;10.00;99.90;;;8.73;45.03;96878.75;10364189;28;1971;-71
2022/03/21 18:24:56;;;;;;;;;;;9.70;99.90;;;8.43;46.94;96878.84;10356723;28;1861;-70
2022/03/21 18:30:00;;;;;;;;;;;9.60;99.90;;;8.41;46.47;96880.97;10550356;22;2321;-75
2022/03/21 18:35:03;;;;;;;;;;;9.40;99.90;;;8.22;47.43;96879.41;10496835;28;1635;-75
2022/03/21 18:40:06;;;;;;;;;;;9.30;99.90;;;8.30;46.44;96873.69;10491314;28;1997;-74
2022/03/21 18:45:09;;;;;;;;;;;9.30;99.90;;;7.99;47.72;96883.66;10491276;28;1813;-74
2022/03/21 18:50:12;;;;;;;;;;;9.10;99.90;;;7.85;48.10;96887.59;10493084;28;1847;-72
2022/03/21 18:55:15;;;;;;;;;;;8.90;99.90;;;7.59;48.71;96884.25;10492236;28;1962;-73
2022/03/21 19:00:19;;;;;;;;;;;8.80;99.90;;;7.49;48.80;96896.53;10482570;28;1666;-72
2022/03/21 19:05:23;;;;;;;;;;;8.60;99.90;;;7.73;48.00;96892.91;10482149;28;1821;-71
2022/03/21 19:10:25;;;;;;;;;;;8.60;99.90;;;7.77;47.33;96895.97;10484798;28;1891;-71
2022/03/21 19:15:29;;;;;;;;;;;8.70;99.90;;;7.83;45.58;96897.72;10483214;28;1910;-72
2022/03/21 19:20:32;;;;;;;;;;;8.70;99.90;;;7.95;43.41;96898.56;10486357;28;1785;-71
2022/03/21 19:25:35;;;;;;;;;;;8.80;99.90;;;7.81;43.75;96902.47;10483190;28;1907;-71
2022/03/21 19:30:42;;;;;;;;;;;8.80;99.90;;;7.66;42.79;96894.06;10485189;28;1809;-73
2022/03/21 19:35:45;;;;;;;;;;;8.70;99.90;;;7.66;42.97;96907.44;10482212;28;1906;-73
2022/03/21 19:40:48;;;;;;;;;;;8.70;99.90;;;7.65;42.40;96898.59;10484327;28;1821;-78
2022/03/21 19:45:51;;;;;;;;;;;8.60;99.90;;;7.57;42.62;96897.06;10486707;28;2263;-76
2022/03/21 19:50:54;;;;;;;;;;;8.50;99.90;;;7.39;42.40;96904.31;10487738;28;1800;-77
2022/03/21 19:55:58;;;;;;;;;;;8.40;99.90;;;7.07;43.04;96901.81;10487386;28;1917;-76
2022/03/21 20:01:01;;;;;;;;;;;8.30;99.90;;;7.15;42.66;96903.34;10484887;28;1833;-75
2022/03/21 20:06:08;;;;;;;;;;;8.10;99.90;;;7.07;42.48;96909.81;10489677;28;1815;-77
2022/03/21 20:11:12;;;;;;;;;;;8.00;99.90;;;6.93;43.07;96913.66;10488852;28;1838;-76
2022/03/21 20:16:15;;;;;;;;;;;8.00;99.60;;;6.61;43.49;96913.78;10485682;28;1914;-72
2022/03/21 20:21:18;;;;;;;;;;;7.80;97.10;;;6.83;42.35;96916.06;10485374;28;2216;-74
2022/03/21 20:26:22;;;;;;;;;;;7.70;96.30;;;6.75;42.24;96914.50;10487613;28;1941;-74
2022/03/21 20:31:26;;;;;;;;;;;7.80;96.30;;;6.39;43.41;96915.25;10489211;28;1741;-75
2022/03/21 20:36:29;;;;;;;;;;;7.60;96.40;;;6.42;43.62;96910.25;10492705;28;1988;-76
2022/03/21 20:41:32;;;;;;;;;;;7.50;96.60;;;6.26;43.52;96912.69;10497051;28;1867;-74
2022/03/21 20:46:35;;;;;;;;;;;7.30;93.60;;;6.07;44.86;96914.47;10492936;28;1753;-76
2022/03/21 20:51:38;;;;;;;;;;;7.30;94.40;;;5.82;45.29;96915.22;10493431;28;2275;-73
2022/03/21 20:56:41;;;;;;;;;;;7.10;94.90;;;6.02;44.45;96916.97;10492937;28;1906;-74
2022/03/21 21:01:44;;;;;;;;;;;7.10;94.70;;;5.84;44.82;96913.16;10488848;28;1805;-74
2022/03/21 21:06:47;;;;;;;;;;;7.00;94.70;;;5.71;45.63;96915.91;10491089;28;1797;-74
2022/03/21 21:11:51;;;;;;;;;;;6.80;92.50;;;5.66;45.34;96911.25;10488039;28;1920;-73
2022/03/21 21:16:54;;;;;;;;;;;6.80;92.60;;;5.55;46.03;96908.44;10493848;28;1918;-73
2022/03/21 21:21:56;;;;;;;;;;;6.70;93.90;;;5.41;46.71;96907.69;10490612;28;1855;-71
2022/03/21 21:27:02;;;;;;;;;;;6.60;94.70;;;5.33;46.84;96908.72;10489482;28;2480;-73
2022/03/21 21:32:05;;;;;;;;;;;6.50;95.10;;;5.15;47.11;96911.25;10486084;28;1885;-74
2022/03/21 21:37:08;;;;;;;;;;;6.40;93.20;;;5.35;46.25;96914.69;10487310;28;2039;-73
2022/03/21 21:42:12;;;;;;;;;;;6.40;93.30;;;5.10;47.23;96908.44;10493078;28;1730;-72
2022/03/21 21:47:15;;;;;;;;;;;6.30;93.50;;;5.09;47.08;96925.44;10496035;28;1836;-72
2022/03/21 21:52:18;;;;;;;;;;;6.10;96.90;;;5.11;47.78;96918.06;10492126;28;2680;-74
2022/03/21 21:57:22;;;;;;;;;;;6.10;97.90;;;4.96;47.80;96909.50;10490555;28;2202;-73
2022/03/21 22:02:25;;;;;;;;;;;6.10;97.70;;;4.82;48.33;96908.72;10487843;28;1830;-73
2022/03/21 22:07:28;;;;;;;;;;;6.00;97.90;;;4.65;48.56;96908.38;10488875;28;2076;-72
2022/03/21 22:12:31;;;;;;;;;;;5.80;98.30;;;4.52;49.45;96913.72;10485286;28;2014;-75
2022/03/21 22:17:39;;;;;;;;;;;5.80;97.00;;;4.59;49.20;96914.53;10485158;28;2162;-72
2022/03/21 22:22:42;;;;;;;;;;;5.60;97.20;;;4.57;49.05;96912.06;10490651;28;1988;-73
2022/03/21 22:27:46;;;;;;;;;;;5.60;97.50;;;4.84;48.51;96912.84;10488920;28;1894;-73
2022/03/21 22:32:51;;;;;;;;;;;5.70;97.40;;;4.76;48.36;96910.38;10484970;28;1890;-73
2022/03/21 22:37:54;;;;;;;;;;;5.80;97.00;;;4.65;48.86;96907.56;10489004;28;1951;-75
2022/03/21 22:48:18;;;;;;;;;;;5.70;96.50;;;4.57;48.00;96898.72;10486158;28;1803;-71
2022/03/21 22:53:21;;;;;;;;;;;5.60;96.10;;;4.50;48.40;96905.09;10488340;28;1945;-74
2022/03/21 22:58:24;;;;;;;;;;;5.60;96.80;;;4.40;48.82;96902.06;10486446;28;1985;-74
2022/03/21 23:03:28;;;;;;;;;;;5.50;97.30;;;4.23;49.15;96915.78;10485982;28;1987;-73
2022/03/21 23:08:31;;;;;;;;;;;5.50;97.00;;;4.17;49.10;96916.59;10487023;28;1822;-73
2022/03/21 23:13:36;;;;;;;;;;;5.30;97.70;;;4.22;48.95;96919.47;10480579;28;2030;-73
2022/03/21 23:18:40;;;;;;;;;;;5.20;97.90;;;4.03;50.29;96930.94;10519125;28;1983;-73
2022/03/21 23:23:44;;;;;;;;;;;5.10;98.70;;;3.84;50.25;96919.25;10488065;28;1891;-72
2022/03/21 23:28:48;;;;;;;;;;;5.10;99.90;;;3.82;50.37;96915.13;10487927;28;1871;-73
2022/03/21 23:33:51;;;;;;;;;;;5.00;99.50;;;3.96;49.68;96914.16;10485264;28;1979;-73
2022/03/21 23:38:54;;;;;;;;;;;5.00;99.20;;;3.68;50.47;96919.63;10487696;28;1914;-72
2022/03/21 23:43:58;;;;;;;;;;;4.80;99.60;;;3.54;51.80;96916.13;10486582;28;1797;-73
2022/03/21 23:49:01;;;;;;;;;;;4.80;99.90;;;3.38;51.55;96917.31;10486687;28;1893;-73
2022/03/21 23:54:05;;;;;;;;;;;4.70;99.90;;;3.32;53.13;96927.94;10485442;28;1849;-72
2022/03/21 23:59:08;;;;;;;;;;;4.80;99.90;;;3.29;52.44;96926.47;10480128;28;2248;-72
